Time;durP1;ratioP1;P1;durP2;ratioP2;P2;SDS_P1;SDS_P2;PMS_P1;PMS_P2;Temp;Humidity;BMP_temperature;BMP_pressure;BME280_temperature;BME280_humidity;BME280_pressure;Samples;Min_cycle;Max_cycle;Signal;HPM_P1;HPM_P2
2021/07/23 00:00:00;;;;;;;4.25;3.83;;;22.10;99.90;;;;;;5052911;28;20392;-79
2021/07/23 00:02:26;;;;;;;3.78;3.40;;;22.10;99.90;;;;;;5053950;28;20035;-79
2021/07/23 00:04:52;;;;;;;4.32;3.90;;;22.00;99.90;;;;;;5036041;28;20071;-79
2021/07/23 00:07:17;;;;;;;4.03;3.58;;;22.10;99.90;;;;;;5053447;28;20025;-79
2021/07/23 00:09:43;;;;;;;4.88;3.00;;;22.10;99.90;;;;;;5053643;28;20033;-78
2021/07/23 00:12:10;;;;;;;4.05;3.28;;;22.10;99.90;;;;;;5035819;28;20025;-79
2021/07/23 00:14:35;;;;;;;4.93;3.83;;;22.00;99.90;;;;;;5036116;28;20567;-78
2021/07/23 00:17:02;;;;;;;4.13;3.85;;;22.00;99.90;;;;;;5053962;28;20109;-79
2021/07/23 00:19:28;;;;;;;4.45;4.05;;;21.90;99.90;;;;;;5054319;28;20033;-78
2021/07/23 00:21:53;;;;;;;4.30;3.90;;;21.90;99.90;;;;;;5053458;28;20021;-79
2021/07/23 00:24:19;;;;;;;4.55;4.18;;;21.90;99.90;;;;;;5036122;28;20555;-78
2021/07/23 00:26:52;;;;;;;4.57;4.18;;;21.90;99.90;;;;;;5036302;28;20017;-78
2021/07/23 00:29:19;;;;;;;4.57;4.18;;;22.00;99.90;;;;;;5036288;28;20452;-78
2021/07/23 00:31:44;;;;;;;4.80;3.95;;;22.00;99.90;;;;;;5054160;28;20049;-79
2021/07/23 00:34:10;;;;;;;4.57;4.05;;;22.10;99.90;;;;;;5054090;28;20024;-78
2021/07/23 00:36:36;;;;;;;4.68;4.18;;;22.00;99.90;;;;;;5053883;28;20419;-79
2021/07/23 00:39:01;;;;;;;5.55;4.28;;;22.10;99.90;;;;;;5036220;28;20029;-79
2021/07/23 00:41:27;;;;;;;4.53;3.92;;;22.20;99.90;;;;;;5053897;28;20120;-79
2021/07/23 00:43:53;;;;;;;4.80;4.13;;;22.20;99.90;;;;;;5036164;28;20514;-79
2021/07/23 00:46:28;;;;;;;4.25;3.45;;;22.10;99.90;;;;;;5053723;28;20025;-79
2021/07/23 00:48:54;;;;;;;6.18;4.13;;;22.20;99.90;;;;;;5053829;28;20025;-79
2021/07/23 00:51:19;;;;;;;3.95;3.58;;;22.10;99.90;;;;;;5053862;28;20025;-79
2021/07/23 00:53:45;;;;;;;5.70;4.22;;;22.10;99.90;;;;;;5053836;28;20392;-79
2021/07/23 00:56:11;;;;;;;6.30;4.15;;;22.00;99.90;;;;;;5035743;28;20021;-78
2021/07/23 00:58:37;;;;;;;6.38;4.40;;;21.90;99.90;;;;;;5053636;28;20458;-79
2021/07/23 01:01:03;;;;;;;4.93;4.47;;;21.90;99.90;;;;;;5035768;28;20039;-78
2021/07/23 01:03:29;;;;;;;4.40;4.00;;;21.80;99.90;;;;;;5053592;28;20103;-79
2021/07/23 01:05:56;;;;;;;5.35;4.35;;;21.80;99.90;;;;;;5035620;28;20396;-79
2021/07/23 01:08:22;;;;;;;5.28;4.03;;;21.80;99.90;;;;;;5053409;28;20029;-78
2021/07/23 01:10:48;;;;;;;4.93;4.35;;;21.80;99.90;;;;;;5053123;28;20373;-78
2021/07/23 01:13:14;;;;;;;4.25;3.50;;;21.80;99.90;;;;;;5034796;28;20383;-78
2021/07/23 01:15:40;;;;;;;4.97;3.63;;;21.80;99.90;;;;;;5053279;28;20116;-78
2021/07/23 01:18:06;;;;;;;4.65;4.22;;;21.90;99.90;;;;;;5053060;28;20021;-78
2021/07/23 01:20:32;;;;;;;4.57;4.13;;;21.80;99.90;;;;;;5053291;28;20120;-78
2021/07/23 01:23:00;;;;;;;4.57;4.18;;;21.80;99.90;;;;;;5034758;28;20029;-79
2021/07/23 01:25:27;;;;;;;5.18;4.25;;;21.80;99.90;;;;;;5053170;28;20484;-79
2021/07/23 01:27:54;;;;;;;4.32;3.92;;;21.80;99.90;;;;;;5052528;28;20448;-79
2021/07/23 01:30:25;;;;;;;4.53;4.10;;;21.80;99.90;;;;;;5034796;28;20017;-79
2021/07/23 01:32:52;;;;;;;4.45;4.05;;;21.80;99.90;;;;;;5034478;28;20021;-79
2021/07/23 01:35:19;;;;;;;4.72;4.32;;;21.80;99.90;;;;;;5053132;28;20075;-79
2021/07/23 01:37:46;;;;;;;6.07;4.43;;;21.80;99.90;;;;;;5052449;28;20049;-79
2021/07/23 01:40:13;;;;;;;4.25;3.88;;;21.80;99.90;;;;;;5052642;28;20032;-79
2021/07/23 01:42:40;;;;;;;4.07;3.67;;;21.80;99.90;;;;;;5052366;28;20033;-79
2021/07/23 01:45:06;;;;;;;4.63;4.22;;;21.80;99.90;;;;;;5035152;28;20049;-79
2021/07/23 01:47:33;;;;;;;3.50;3.22;;;21.80;99.90;;;;;;5052199;28;20025;-79
2021/07/23 01:49:59;;;;;;;4.45;4.05;;;21.80;99.90;;;;;;5052919;28;20108;-79
2021/07/23 01:52:25;;;;;;;5.97;3.90;;;21.90;99.90;;;;;;5051989;28;20021;-79
2021/07/23 01:54:51;;;;;;;4.90;4.40;;;21.90;99.90;;;;;;5034909;28;20075;-79
2021/07/23 01:57:16;;;;;;;4.50;4.13;;;21.90;99.90;;;;;;5052276;28;20021;-79
2021/07/23 01:59:42;;;;;;;3.88;3.58;;;21.90;99.90;;;;;;5034763;28;20036;-79
2021/07/23 02:02:08;;;;;;;4.32;3.92;;;21.90;99.90;;;;;;5033982;28;20484;-79
2021/07/23 02:04:34;;;;;;;8.45;4.20;;;21.90;99.90;;;;;;5052462;28;20402;-79
2021/07/23 02:07:00;;;;;;;4.18;3.63;;;21.90;99.90;;;;;;5052369;28;20025;-79
2021/07/23 02:09:26;;;;;;;4.10;3.80;;;21.90;99.90;;;;;;5036908;28;20086;-78
2021/07/23 02:11:55;;;;;;;4.72;4.18;;;22.00;99.90;;;;;;5055553;28;20036;-77
2021/07/23 02:14:21;;;;;;;4.80;4.40;;;22.00;99.90;;;;;;5034434;28;20472;-78
2021/07/23 02:16:47;;;;;;;5.82;4.40;;;21.90;99.90;;;;;;5034497;28;20071;-78
2021/07/23 02:19:13;;;;;;;4.20;3.85;;;21.90;99.90;;;;;;5052494;28;20413;-79
2021/07/23 02:21:40;;;;;;;4.10;3.78;;;21.80;99.90;;;;;;5052547;28;20035;-79
2021/07/23 02:24:06;;;;;;;4.40;4.00;;;21.80;99.90;;;;;;5055172;28;20031;-79
2021/07/23 02:26:32;;;;;;;6.15;4.22;;;21.80;99.90;;;;;;5038287;28;20021;-79
2021/07/23 02:28:57;;;;;;;4.20;3.83;;;21.80;99.90;;;;;;5056224;28;20112;-79
2021/07/23 02:31:24;;;;;;;4.30;3.88;;;21.90;99.90;;;;;;5038291;28;20027;-79
2021/07/23 02:33:50;;;;;;;4.15;3.85;;;21.90;99.90;;;;;;5056197;28;20025;-79
2021/07/23 02:36:16;;;;;;;4.50;3.97;;;21.90;99.90;;;;;;5055910;28;20090;-79
2021/07/23 02:38:41;;;;;;;3.80;3.40;;;21.90;99.90;;;;;;5038212;28;20053;-79
2021/07/23 02:41:07;;;;;;;3.80;3.50;;;21.90;99.90;;;;;;5038417;28;20079;-79
2021/07/23 02:43:33;;;;;;;6.35;3.63;;;21.80;99.90;;;;;;5056051;28;20074;-79
2021/07/23 02:45:59;;;;;;;3.83;3.53;;;21.90;99.90;;;;;;5037579;28;20029;-79
2021/07/23 02:48:25;;;;;;;4.57;4.22;;;21.90;99.90;;;;;;5055300;28;20398;-78
2021/07/23 02:50:51;;;;;;;4.10;3.80;;;21.80;99.90;;;;;;5055653;28;20017;-79
2021/07/23 02:53:18;;;;;;;4.07;3.78;;;21.80;99.90;;;;;;5055142;28;20052;-79
2021/07/23 02:55:49;;;;;;;4.18;3.85;;;21.80;99.90;;;;;;5055036;28;20017;-79
2021/07/23 02:58:15;;;;;;;4.82;3.97;;;21.80;99.90;;;;;;5055106;28;20384;-79
2021/07/23 03:00:40;;;;;;;3.88;3.58;;;21.80;99.90;;;;;;5055146;28;20021;-79
2021/07/23 03:03:06;;;;;;;4.78;3.40;;;21.80;99.90;;;;;;5055015;28;20090;-79
2021/07/23 03:05:32;;;;;;;6.75;4.43;;;21.70;99.90;;;;;;5037210;28;20070;-79
2021/07/23 03:07:58;;;;;;;4.07;3.78;;;21.80;99.90;;;;;;5036917;28;20040;-79
2021/07/23 03:10:23;;;;;;;4.70;4.20;;;21.80;99.90;;;;;;5054540;28;20021;-79
2021/07/23 03:12:49;;;;;;;3.65;3.35;;;21.90;99.90;;;;;;5036709;28;20535;-79
2021/07/23 03:15:15;;;;;;;4.53;4.22;;;21.80;99.90;;;;;;5050760;28;20018;-79
2021/07/23 03:17:41;;;;;;;4.07;3.67;;;21.80;99.90;;;;;;5045049;28;20394;-79
2021/07/23 03:20:07;;;;;;;4.15;3.83;;;21.80;99.90;;;;;;5055410;28;20053;-79
2021/07/23 03:22:33;;;;;;;5.40;3.60;;;21.80;99.90;;;;;;5036728;28;20025;-79
2021/07/23 03:25:02;;;;;;;5.88;3.58;;;21.80;99.90;;;;;;5055414;28;20017;-79
2021/07/23 03:27:28;;;;;;;3.45;3.25;;;21.80;99.90;;;;;;5054893;28;20021;-79
2021/07/23 03:29:55;;;;;;;5.32;3.88;;;21.80;99.90;;;;;;5054920;28;20515;-79
2021/07/23 03:32:20;;;;;;;4.18;3.70;;;21.80;99.90;;;;;;5054601;28;20124;-79
2021/07/23 03:34:46;;;;;;;3.67;3.38;;;21.80;99.90;;;;;;5054456;28;20516;-79
2021/07/23 03:37:12;;;;;;;4.20;3.90;;;21.80;99.90;;;;;;5054537;28;20037;-79
2021/07/23 03:39:38;;;;;;;7.05;4.03;;;21.90;99.90;;;;;;5055090;28;20025;-79
2021/07/23 03:42:03;;;;;;;3.97;3.60;;;21.90;99.90;;;;;;5054707;28;20484;-78
2021/07/23 03:44:29;;;;;;;4.00;3.70;;;21.90;99.90;;;;;;5037076;28;20065;-79
2021/07/23 03:46:55;;;;;;;3.65;3.33;;;21.90;99.90;;;;;;5054912;28;20033;-79
2021/07/23 03:49:21;;;;;;;4.05;3.67;;;21.80;99.90;;;;;;5036970;28;20033;-79
2021/07/23 03:51:46;;;;;;;5.90;3.72;;;21.90;99.90;;;;;;5036656;28;20027;-79
2021/07/23 03:54:12;;;;;;;4.30;3.90;;;21.90;99.90;;;;;;5054436;28;20031;-79
2021/07/23 03:56:38;;;;;;;4.18;3.72;;;22.00;99.90;;;;;;5054630;28;20067;-79
2021/07/23 03:59:05;;;;;;;3.85;3.45;;;22.00;99.90;;;;;;5036238;28;20091;-79
2021/07/23 04:01:31;;;;;;;3.88;3.58;;;21.90;99.90;;;;;;5037147;28;20082;-79
2021/07/23 04:03:56;;;;;;;5.50;3.35;;;21.90;99.90;;;;;;5050170;28;20422;-79
2021/07/23 04:06:22;;;;;;;4.50;3.92;;;21.80;99.90;;;;;;5036111;28;20028;-79
2021/07/23 04:08:48;;;;;;;3.83;3.53;;;21.70;99.90;;;;;;5054647;28;20029;-79
2021/07/23 04:11:15;;;;;;;4.15;3.58;;;21.70;99.90;;;;;;5054347;28;20492;-78
2021/07/23 04:13:41;;;;;;;3.90;3.60;;;21.70;99.90;;;;;;5054420;28;20017;-78
2021/07/23 04:16:07;;;;;;;4.82;3.95;;;21.80;99.90;;;;;;5036364;28;20074;-79
2021/07/23 04:18:33;;;;;;;4.00;3.58;;;21.80;99.90;;;;;;5054368;28;20021;-79
2021/07/23 04:21:02;;;;;;;4.40;3.70;;;21.80;99.90;;;;;;5036549;28;20094;-79
2021/07/23 04:23:27;;;;;;;4.88;4.05;;;21.60;99.90;;;;;;5054463;28;20040;-79
2021/07/23 04:25:53;;;;;;;4.38;4.00;;;21.60;99.90;;;;;;5036402;28;20025;-79
2021/07/23 04:28:19;;;;;;;4.30;3.90;;;21.60;99.90;;;;;;5036349;28;20033;-78
2021/07/23 04:30:44;;;;;;;3.65;3.35;;;21.70;99.90;;;;;;5054152;28;20021;-79
2021/07/23 04:33:10;;;;;;;3.90;3.50;;;21.70;99.90;;;;;;5054136;28;20104;-79
2021/07/23 04:35:36;;;;;;;4.20;3.90;;;21.60;99.90;;;;;;5054027;28;20388;-79
2021/07/23 04:38:02;;;;;;;5.25;3.88;;;21.70;99.90;;;;;;5036104;28;20088;-78
2021/07/23 04:40:27;;;;;;;7.88;4.28;;;21.60;99.90;;;;;;5053996;28;20029;-78
2021/07/23 04:42:53;;;;;;;5.63;3.63;;;21.60;99.90;;;;;;5053940;28;20025;-78
2021/07/23 04:45:19;;;;;;;7.03;3.80;;;21.60;99.90;;;;;;5053863;28;20052;-78
2021/07/23 04:47:45;;;;;;;6.53;4.00;;;21.60;99.90;;;;;;5053793;28;20064;-78
2021/07/23 04:50:10;;;;;;;4.13;3.83;;;21.50;99.90;;;;;;5053861;28;20477;-79
2021/07/23 04:52:36;;;;;;;3.83;3.50;;;21.60;99.90;;;;;;5053747;28;20094;-78
2021/07/23 04:55:07;;;;;;;5.07;4.05;;;21.60;99.90;;;;;;5053570;28;20027;-79
2021/07/23 04:57:41;;;;;;;4.63;3.65;;;21.60;99.90;;;;;;5053686;28;20028;-79
2021/07/23 05:00:07;;;;;;;3.90;3.58;;;21.60;99.90;;;;;;5035688;28;20067;-78
2021/07/23 05:02:33;;;;;;;5.70;3.97;;;21.60;99.90;;;;;;5053186;28;20036;-79
2021/07/23 05:04:59;;;;;;;3.67;3.35;;;21.50;99.90;;;;;;5035658;28;20025;-81
2021/07/23 05:07:24;;;;;;;4.97;3.92;;;21.60;99.90;;;;;;5053227;28;20021;-78
2021/07/23 05:09:50;;;;;;;5.75;3.63;;;21.60;99.90;;;;;;5035615;28;20029;-78
2021/07/23 05:12:16;;;;;;;5.32;4.07;;;21.60;99.90;;;;;;5052969;28;20535;-78
2021/07/23 05:14:43;;;;;;;4.47;3.97;;;21.70;99.90;;;;;;5052737;28;20063;-78
2021/07/23 05:17:09;;;;;;;4.10;3.75;;;21.70;99.90;;;;;;5034920;28;20021;-79
2021/07/23 05:19:36;;;;;;;9.25;3.65;;;21.70;99.90;;;;;;5053013;28;20037;-78
2021/07/23 05:22:02;;;;;;;4.03;3.72;;;21.70;99.90;;;;;;5034944;28;20040;-78
2021/07/23 05:24:30;;;;;;;5.50;3.75;;;21.80;99.90;;;;;;5035100;28;20029;-78
2021/07/23 05:26:56;;;;;;;6.63;4.30;;;21.80;99.90;;;;;;5052466;28;20021;-78
2021/07/23 05:29:21;;;;;;;5.95;3.83;;;21.90;99.90;;;;;;5052164;28;20510;-78
2021/07/23 05:31:47;;;;;;;4.72;3.83;;;21.90;99.90;;;;;;5052756;28;20035;-78
2021/07/23 05:34:13;;;;;;;3.58;3.22;;;22.00;99.90;;;;;;5035137;28;20071;-78
2021/07/23 05:36:39;;;;;;;3.85;3.53;;;22.00;99.90;;;;;;5034576;28;20139;-78
2021/07/23 05:39:04;;;;;;;6.35;3.78;;;22.10;99.90;;;;;;5053094;28;20029;-78
2021/07/23 05:41:30;;;;;;;4.07;3.78;;;22.30;99.90;;;;;;5053013;28;20036;-78
2021/07/23 05:43:57;;;;;;;4.03;3.67;;;22.40;99.90;;;;;;5052831;28;20029;-78
2021/07/23 05:46:22;;;;;;;4.72;3.63;;;22.50;99.90;;;;;;5034487;28;20074;-78
2021/07/23 05:48:48;;;;;;;4.63;3.35;;;22.50;99.90;;;;;;5052799;28;20033;-78
2021/07/23 05:51:14;;;;;;;5.30;4.10;;;22.60;99.90;;;;;;5052692;28;20478;-78
2021/07/23 05:53:39;;;;;;;5.93;4.07;;;22.60;99.90;;;;;;5052650;28;20083;-78
2021/07/23 05:56:06;;;;;;;5.25;3.42;;;22.70;99.90;;;;;;5023911;28;20031;-76
2021/07/23 05:58:46;;;;;;;3.90;3.53;;;22.80;99.90;;;;;;5053322;28;20049;-77
2021/07/23 06:04:34;;;;;;;4.13;3.67;;;22.90;99.90;;;;;;5053273;28;20490;-79
2021/07/23 06:07:04;;;;;;;4.22;3.70;;;22.90;99.90;;;;;;5052288;28;20025;-79
2021/07/23 06:09:30;;;;;;;6.90;3.72;;;23.00;99.90;;;;;;5034777;28;20025;-79
2021/07/23 06:11:56;;;;;;;8.18;4.00;;;23.00;99.90;;;;;;5034609;28;20017;-79
2021/07/23 06:14:21;;;;;;;4.25;3.85;;;23.00;99.90;;;;;;5052433;28;20063;-79
2021/07/23 06:16:47;;;;;;;4.45;3.47;;;23.00;99.90;;;;;;5034658;28;20082;-79
2021/07/23 06:19:13;;;;;;;5.82;3.88;;;23.10;99.90;;;;;;5052564;28;20029;-79
2021/07/23 06:21:39;;;;;;;3.70;3.35;;;23.10;99.90;;;;;;5052432;28;20183;-79
2021/07/23 06:24:04;;;;;;;6.60;3.53;;;23.20;99.90;;;;;;5052467;28;20529;-79
2021/07/23 06:26:32;;;;;;;6.30;3.50;;;23.20;99.90;;;;;;5052311;28;20021;-79
2021/07/23 06:28:57;;;;;;;9.20;3.63;;;23.30;99.90;;;;;;5052328;28;20067;-79
2021/07/23 06:31:23;;;;;;;6.00;3.88;;;23.30;99.90;;;;;;5034655;28;20048;-79
2021/07/23 06:33:49;;;;;;;9.40;3.45;;;23.30;99.90;;;;;;5052337;28;20511;-79
2021/07/23 06:36:15;;;;;;;6.10;3.67;;;23.40;99.90;;;;;;5052181;28;20032;-79
2021/07/23 06:38:41;;;;;;;4.50;3.65;;;23.40;99.90;;;;;;5052118;28;20053;-78
2021/07/23 06:41:07;;;;;;;4.03;3.63;;;23.50;99.90;;;;;;5052315;28;20099;-79
2021/07/23 06:43:33;;;;;;;4.53;3.92;;;23.60;99.90;;;;;;5034405;28;20048;-79
2021/07/23 06:46:01;;;;;;;5.63;4.15;;;23.60;99.90;;;;;;5034244;28;20033;-78
2021/07/23 06:48:26;;;;;;;4.88;4.47;;;23.70;99.90;;;;;;5052296;28;20021;-79
2021/07/23 06:50:52;;;;;;;5.75;4.97;;;23.70;99.90;;;;;;5052159;28;20447;-78
2021/07/23 06:53:19;;;;;;;4.18;3.75;;;23.70;99.90;;;;;;5052225;28;20063;-76
2021/07/23 06:55:45;;;;;;;4.68;3.90;;;23.80;99.90;;;;;;5019011;28;20091;-78
2021/07/23 06:58:11;;;;;;;5.50;3.95;;;23.80;99.90;;;;;;5032180;28;20021;-78
2021/07/23 07:00:38;;;;;;;6.38;3.97;;;23.90;99.90;;;;;;5012620;28;20034;-79
2021/07/23 07:03:07;;;;;;;5.05;4.55;;;23.90;99.90;;;;;;5024431;28;20034;-78
2021/07/23 07:05:33;;;;;;;5.45;4.30;;;23.90;99.90;;;;;;5008411;28;20034;-78
2021/07/23 07:07:59;;;;;;;8.32;4.28;;;23.90;99.90;;;;;;5010705;28;20040;-78
2021/07/23 07:10:26;;;;;;;5.05;4.50;;;23.90;99.90;;;;;;5014786;28;20017;-78
2021/07/23 07:12:59;;;;;;;5.80;4.65;;;24.00;99.90;;;;;;5008038;28;20029;-78
2021/07/23 07:15:25;;;;;;;5.47;4.50;;;24.00;99.90;;;;;;5033890;28;20079;-78
2021/07/23 07:17:58;;;;;;;4.63;4.22;;;24.00;99.90;;;;;;5031644;28;20084;-78
2021/07/23 07:20:24;;;;;;;3.78;3.47;;;24.10;99.90;;;;;;5016000;28;20497;-78
2021/07/23 07:22:54;;;;;;;4.28;3.88;;;24.20;99.90;;;;;;5015998;28;20060;-78
2021/07/23 07:25:21;;;;;;;4.35;3.58;;;24.20;99.90;;;;;;5015633;28;20016;-78
2021/07/23 07:27:47;;;;;;;4.38;3.67;;;24.30;99.90;;;;;;5034442;28;20560;-78
2021/07/23 07:30:13;;;;;;;4.50;3.88;;;24.30;99.90;;;;;;5034065;28;20114;-79
2021/07/23 07:32:39;;;;;;;4.32;3.92;;;24.40;99.90;;;;;;5034309;28;20500;-77
2021/07/23 07:35:05;;;;;;;3.55;3.25;;;24.40;99.90;;;;;;5034109;28;20032;-77
2021/07/23 07:37:31;;;;;;;9.27;4.13;;;24.40;99.90;;;;;;5043018;28;20048;-77
2021/07/23 07:39:58;;;;;;;5.38;3.58;;;24.50;99.90;;;;;;5051327;28;20416;-77
2021/07/23 07:42:24;;;;;;;4.60;4.15;;;24.60;99.90;;;;;;5048920;28;20074;-77
2021/07/23 07:44:50;;;;;;;5.38;3.97;;;24.60;99.90;;;;;;5038935;28;20424;-78
2021/07/23 07:47:16;;;;;;;6.95;3.63;;;24.60;99.90;;;;;;5032435;28;20131;-77
2021/07/23 07:49:42;;;;;;;4.50;4.10;;;24.70;99.90;;;;;;5043589;28;20488;-77
2021/07/23 07:52:08;;;;;;;5.18;4.28;;;24.70;99.90;;;;;;5026516;28;20029;-77
2021/07/23 07:54:34;;;;;;;5.30;3.45;;;24.80;99.90;;;;;;5034688;28;20103;-77
2021/07/23 07:57:07;;;;;;;4.10;3.65;;;24.80;99.90;;;;;;5049949;28;20025;-77
2021/07/23 07:59:33;;;;;;;4.80;3.55;;;24.90;99.90;;;;;;5051921;28;20025;-77
2021/07/23 08:01:59;;;;;;;4.68;4.28;;;24.90;99.90;;;;;;5025294;28;20372;-77
2021/07/23 08:04:24;;;;;;;5.03;4.00;;;24.90;99.20;;;;;;5046611;28;20033;-77
2021/07/23 08:06:50;;;;;;;6.28;3.70;;;25.00;98.60;;;;;;5042541;28;20021;-77
2021/07/23 08:09:16;;;;;;;5.57;3.50;;;25.00;98.80;;;;;;5019010;28;20576;-77
2021/07/23 08:11:42;;;;;;;4.45;4.05;;;25.10;99.60;;;;;;5044712;28;20096;-77
2021/07/23 08:14:08;;;;;;;4.18;3.78;;;25.30;99.70;;;;;;5026685;28;20119;-77
2021/07/23 08:16:34;;;;;;;7.68;4.65;;;25.30;99.30;;;;;;5031217;28;20502;-77
2021/07/23 08:19:04;;;;;;;5.15;3.67;;;25.40;99.70;;;;;;5042116;28;20029;-77
2021/07/23 08:21:31;;;;;;;4.18;3.80;;;25.40;99.40;;;;;;5051526;28;20023;-77
2021/07/23 08:24:00;;;;;;;3.92;3.63;;;25.40;98.90;;;;;;5025795;28;20047;-77
2021/07/23 08:26:26;;;;;;;6.15;4.57;;;25.50;98.10;;;;;;5035084;28;20025;-77
2021/07/23 08:28:52;;;;;;;5.13;3.90;;;25.40;98.60;;;;;;5036659;28;20076;-77
2021/07/23 08:31:18;;;;;;;5.13;3.53;;;25.40;97.00;;;;;;5049599;28;20024;-77
2021/07/23 08:33:44;;;;;;;4.88;3.83;;;25.50;96.90;;;;;;5044938;28;20030;-77
2021/07/23 08:36:10;;;;;;;4.47;4.05;;;25.50;96.20;;;;;;5046245;28;20056;-77
2021/07/23 08:38:36;;;;;;;3.97;3.65;;;25.50;96.70;;;;;;5051499;28;20072;-77
2021/07/23 08:41:03;;;;;;;4.72;3.97;;;25.50;98.30;;;;;;5053305;28;20029;-77
2021/07/23 08:43:29;;;;;;;4.47;4.07;;;25.60;96.80;;;;;;5051878;28;20029;-77
2021/07/23 08:45:56;;;;;;;5.40;4.57;;;25.70;97.60;;;;;;5051058;28;20025;-77
2021/07/23 08:48:21;;;;;;;5.22;4.72;;;25.70;98.60;;;;;;5046586;28;20067;-77
2021/07/23 08:50:47;;;;;;;5.05;3.80;;;25.70;97.90;;;;;;5029986;28;20053;-77
2021/07/23 08:53:13;;;;;;;5.22;4.68;;;25.70;99.00;;;;;;5051018;28;20021;-77
2021/07/23 08:55:39;;;;;;;6.53;4.40;;;25.80;98.70;;;;;;5031009;28;20146;-77
2021/07/23 08:58:09;;;;;;;5.25;4.75;;;25.80;97.20;;;;;;5046619;28;20079;-77
2021/07/23 09:00:36;;;;;;;6.00;4.70;;;25.80;96.00;;;;;;5046130;28;20024;-77
2021/07/23 09:03:03;;;;;;;5.43;4.32;;;25.80;95.80;;;;;;5051340;28;20029;-77
2021/07/23 09:05:36;;;;;;;5.63;4.72;;;25.80;96.90;;;;;;5028363;28;20053;-77
2021/07/23 09:08:11;;;;;;;8.35;4.40;;;25.90;96.90;;;;;;5048258;28;20021;-77
2021/07/23 09:10:37;;;;;;;5.75;5.05;;;26.10;96.80;;;;;;5044117;28;20037;-77
2021/07/23 09:13:05;;;;;;;5.63;5.00;;;26.00;96.00;;;;;;5041084;28;20375;-77
2021/07/23 09:15:39;;;;;;;6.28;4.60;;;26.10;97.20;;;;;;5050109;28;20487;-77
2021/07/23 09:18:07;;;;;;;5.22;4.72;;;26.00;96.30;;;;;;5051515;28;20108;-77
2021/07/23 09:20:33;;;;;;;7.72;4.80;;;26.00;96.10;;;;;;5043716;28;20097;-77
2021/07/23 09:23:02;;;;;;;6.20;4.75;;;26.20;97.40;;;;;;5033709;28;20024;-77
2021/07/23 09:25:43;;;;;;;8.15;5.00;;;26.30;97.10;;;;;;5042971;28;20024;-77
2021/07/23 09:28:30;;;;;;;10.73;4.85;;;26.20;95.80;;;;;;5034585;28;20523;-77
2021/07/23 09:30:59;;;;;;;11.30;4.65;;;26.20;95.10;;;;;;5050719;28;20017;-77
2021/07/23 09:33:35;;;;;;;5.10;4.50;;;26.40;96.10;;;;;;5029039;28;20025;-77
2021/07/23 09:36:09;;;;;;;7.25;4.57;;;26.40;95.70;;;;;;5021034;28;20026;-77
2021/07/23 09:38:40;;;;;;;4.88;4.38;;;26.40;95.40;;;;;;5044418;28;20106;-77
2021/07/23 09:41:12;;;;;;;5.25;4.53;;;26.50;95.30;;;;;;5052096;28;20044;-77
2021/07/23 09:43:43;;;;;;;7.10;4.43;;;26.60;94.70;;;;;;5037498;28;20124;-77
2021/07/23 09:46:21;;;;;;;5.30;4.80;;;26.50;94.60;;;;;;5036055;28;20025;-76
2021/07/23 09:48:50;;;;;;;5.57;4.55;;;26.50;94.20;;;;;;5044878;28;20120;-76
2021/07/23 09:51:16;;;;;;;4.90;4.50;;;26.50;94.30;;;;;;5051815;28;20533;-76
2021/07/23 09:53:41;;;;;;;5.10;4.03;;;26.50;96.10;;;;;;5051640;28;20380;-76
2021/07/23 09:56:11;;;;;;;6.55;4.68;;;26.60;95.70;;;;;;5033766;28;20032;-76
2021/07/23 09:58:41;;;;;;;4.60;4.20;;;26.70;95.70;;;;;;5032859;28;20063;-76
2021/07/23 10:01:10;;;;;;;5.82;5.22;;;26.80;95.30;;;;;;5051622;28;20025;-76
2021/07/23 10:03:44;;;;;;;9.93;4.97;;;26.90;94.40;;;;;;5033583;28;20553;-76
2021/07/23 10:06:16;;;;;;;5.97;5.47;;;26.90;95.50;;;;;;5033141;28;20487;-76
2021/07/23 10:08:50;;;;;;;5.32;4.88;;;27.00;96.60;;;;;;5051325;28;20024;-76
2021/07/23 10:11:20;;;;;;;5.05;4.55;;;27.10;95.20;;;;;;5050812;28;20025;-76
2021/07/23 10:13:48;;;;;;;5.20;4.80;;;27.10;94.50;;;;;;5051588;28;20021;-77
2021/07/23 10:16:15;;;;;;;6.10;4.53;;;27.10;93.90;;;;;;5033302;28;20366;-76
2021/07/23 10:18:42;;;;;;;5.13;4.63;;;27.10;95.80;;;;;;5032844;28;20024;-77
2021/07/23 10:21:11;;;;;;;5.22;4.72;;;27.30;93.70;;;;;;5051363;28;20082;-76
2021/07/23 10:23:38;;;;;;;8.13;4.72;;;27.30;93.10;;;;;;5051131;28;20407;-76
2021/07/23 10:26:05;;;;;;;6.90;4.70;;;27.30;93.50;;;;;;5032890;28;20033;-76
2021/07/23 10:28:36;;;;;;;7.15;4.25;;;27.40;92.50;;;;;;5050896;28;20040;-76
2021/07/23 10:31:17;;;;;;;6.55;4.55;;;27.40;92.10;;;;;;5048590;28;20036;-76
2021/07/23 10:33:53;;;;;;;5.03;4.53;;;27.40;92.10;;;;;;5044650;28;20044;-77
2021/07/23 10:36:31;;;;;;;5.07;4.68;;;27.50;92.10;;;;;;5050380;28;20109;-76
2021/07/23 10:39:05;;;;;;;6.82;5.18;;;27.50;91.20;;;;;;5049987;28;20051;-76
2021/07/23 10:41:35;;;;;;;7.15;4.70;;;27.60;91.70;;;;;;5050835;28;20021;-76
2021/07/23 10:44:12;;;;;;;5.22;4.55;;;27.60;92.70;;;;;;5052146;28;20506;-76
2021/07/23 10:46:42;;;;;;;5.57;5.07;;;27.70;92.50;;;;;;5033735;28;20451;-76
2021/07/23 10:49:30;;;;;;;4.80;4.40;;;27.90;91.30;;;;;;5055096;28;20123;-76
2021/07/23 10:51:59;;;;;;;7.22;5.35;;;28.00;92.40;;;;;;5055709;28;20021;-76
2021/07/23 10:54:33;;;;;;;10.15;5.10;;;28.00;89.50;;;;;;5055967;28;20104;-76
2021/07/23 10:57:01;;;;;;;6.97;5.55;;;28.10;90.60;;;;;;5038148;28;20017;-77
2021/07/23 11:02:10;;;;;;;8.50;4.90;;;28.30;90.60;;;;;;5056043;28;20027;-76
2021/07/23 11:04:38;;;;;;;5.75;5.15;;;28.40;91.20;;;;;;5046651;28;20040;-76
2021/07/23 11:07:16;;;;;;;5.53;5.03;;;28.50;91.40;;;;;;5037621;28;20029;-77
2021/07/23 11:09:44;;;;;;;5.72;5.20;;;28.60;90.90;;;;;;5037801;28;20064;-77
2021/07/23 11:12:33;;;;;;;6.03;4.70;;;28.70;91.60;;;;;;5037859;28;20082;-77
2021/07/23 11:15:05;;;;;;;6.65;4.75;;;28.80;90.80;;;;;;5055490;28;20025;-77
2021/07/23 11:17:31;;;;;;;7.95;6.65;;;28.90;90.70;;;;;;5037432;28;20029;-76
2021/07/23 11:19:59;;;;;;;5.75;5.20;;;29.00;90.20;;;;;;5055266;28;20096;-76
2021/07/23 11:22:30;;;;;;;7.50;5.20;;;28.90;86.50;;;;;;5055156;28;20071;-77
2021/07/23 11:24:57;;;;;;;7.20;5.82;;;28.90;88.50;;;;;;5054767;28;20021;-77
2021/07/23 11:27:24;;;;;;;5.50;5.00;;;28.90;87.30;;;;;;5055029;28;20040;-77
2021/07/23 11:29:51;;;;;;;5.70;5.20;;;29.00;89.20;;;;;;5055246;28;20027;-77
2021/07/23 11:32:18;;;;;;;5.97;5.32;;;29.00;85.00;;;;;;5055291;28;20078;-76
2021/07/23 11:34:44;;;;;;;6.78;5.43;;;29.00;87.10;;;;;;5037126;28;20029;-77
2021/07/23 11:37:21;;;;;;;6.25;5.13;;;29.10;87.30;;;;;;5055173;28;20045;-76
2021/07/23 11:40:00;;;;;;;5.53;5.00;;;29.20;90.90;;;;;;5055485;28;20044;-77
2021/07/23 11:42:36;;;;;;;7.35;6.35;;;29.30;90.80;;;;;;5054759;28;20029;-76
2021/07/23 11:45:03;;;;;;;7.97;5.80;;;29.30;85.20;;;;;;5036262;28;20028;-76
2021/07/23 11:47:34;;;;;;;7.60;6.07;;;29.40;88.50;;;;;;5054322;28;20021;-76
2021/07/23 11:50:05;;;;;;;6.75;5.63;;;29.50;89.30;;;;;;5036286;28;20033;-76
2021/07/23 11:52:31;;;;;;;7.47;5.47;;;29.60;87.70;;;;;;5036316;28;20032;-77
2021/07/23 11:55:10;;;;;;;9.52;6.47;;;29.70;85.60;;;;;;5053683;28;20487;-76
2021/07/23 11:57:56;;;;;;;11.65;6.78;;;29.60;85.60;;;;;;5053983;28;20028;-77
2021/07/23 12:00:24;;;;;;;12.20;6.03;;;29.60;85.00;;;;;;5053639;28;20059;-76
2021/07/23 12:02:52;;;;;;;10.25;5.80;;;29.80;84.30;;;;;;5034994;28;20026;-77
2021/07/23 12:05:19;;;;;;;8.95;6.03;;;29.90;85.50;;;;;;5016253;28;20079;-77
2021/07/23 12:08:00;;;;;;;12.23;6.60;;;30.10;89.10;;;;;;5033972;28;20030;-76
2021/07/23 12:10:28;;;;;;;9.75;5.88;;;30.20;83.70;;;;;;5016220;28;20099;-76
2021/07/23 12:12:56;;;;;;;8.00;6.20;;;30.30;82.50;;;;;;5034394;28;20018;-76
2021/07/23 12:15:22;;;;;;;14.63;6.40;;;30.30;80.50;;;;;;5034345;28;20108;-75
2021/07/23 12:17:49;;;;;;;11.13;5.45;;;30.30;82.50;;;;;;5034138;28;20100;-75
2021/07/23 12:20:25;;;;;;;9.85;6.50;;;30.50;84.90;;;;;;5034249;28;20508;-76
2021/07/23 12:23:01;;;;;;;9.77;6.55;;;30.70;82.20;;;;;;5034313;28;20107;-76
2021/07/23 12:25:38;;;;;;;9.27;6.32;;;30.50;79.00;;;;;;5034461;28;20029;-76
2021/07/23 12:28:13;;;;;;;8.52;6.53;;;30.60;78.50;;;;;;5034491;28;20029;-77
2021/07/23 12:30:40;;;;;;;7.05;6.35;;;30.70;81.30;;;;;;5034062;28;20021;-77
2021/07/23 12:33:17;;;;;;;6.97;5.65;;;30.70;79.50;;;;;;5042453;28;20025;-77
2021/07/23 12:35:43;;;;;;;6.43;5.13;;;30.80;79.70;;;;;;5054173;28;20025;-77
2021/07/23 12:38:10;;;;;;;10.75;5.05;;;31.00;82.00;;;;;;5054177;28;20037;-77
2021/07/23 12:40:49;;;;;;;9.77;5.25;;;31.00;79.80;;;;;;5036363;28;20032;-77
2021/07/23 12:43:20;;;;;;;7.63;5.28;;;31.00;76.20;;;;;;5036482;28;20473;-77
2021/07/23 12:45:46;;;;;;;6.50;5.80;;;31.10;77.90;;;;;;5036161;28;20108;-77
2021/07/23 12:48:15;;;;;;;7.40;5.47;;;31.20;76.00;;;;;;5053781;28;20496;-77
2021/07/23 12:50:42;;;;;;;6.85;5.60;;;31.20;77.60;;;;;;5054130;28;20017;-78
2021/07/23 12:53:09;;;;;;;7.00;5.68;;;31.30;76.20;;;;;;5053743;28;20029;-77